APG326 RPLL-RPVM
Flight info
| Callsign | APG326 |
|---|---|
| Flight time | N/A |
| Altitude | 32000 |
| Route | IPATA2R IPATA W25 BATAY BATAY3P |
| Aircraft | A320/M-SDE3FGHIRWY/LB1 |
Departure
| Time | 2026-05-01 15:20 |
|---|---|
| Airport | Ninoy Aquino International Airport (RPLL) |
Arrival
| Time | N/A |
|---|---|
| Airport | Mactan Cebu International Airport (RPVM) |
| Time | Latitude | Longitude | Altitude | Speed | Heading |
|---|---|---|---|---|---|
| 2026-05-01 14:52 | 14.50476 | 121.00588 | 69 ft | 0 kts | 11° |
| 2026-05-01 15:06 | 14.50471 | 121.00587 | 69 ft | 2 kts | 11° |
| 2026-05-01 15:06 | 14.50454 | 121.00583 | 62 ft | 2 kts | 11° |
| 2026-05-01 15:06 | 14.50438 | 121.00580 | 63 ft | 2 kts | 11° |
| 2026-05-01 15:06 | 14.50421 | 121.00576 | 60 ft | 2 kts | 11° |
| 2026-05-01 15:07 | 14.50404 | 121.00573 | 61 ft | 2 kts | 11° |
| 2026-05-01 15:07 | 14.50393 | 121.00570 | 63 ft | 0 kts | 8° |
| 2026-05-01 15:07 | 14.50378 | 121.00570 | 59 ft | 3 kts | 337° |
| 2026-05-01 15:07 | 14.50363 | 121.00580 | 64 ft | 3 kts | 300° |
| 2026-05-01 15:08 | 14.50358 | 121.00592 | 61 ft | 3 kts | 276° |
| 2026-05-01 15:08 | 14.50360 | 121.00612 | 66 ft | 0 kts | 239° |
| 2026-05-01 15:09 | 14.50352 | 121.00598 | 66 ft | 8 kts | 239° |
| 2026-05-01 15:10 | 14.50316 | 121.00535 | 67 ft | 10 kts | 239° |
| 2026-05-01 15:10 | 14.50252 | 121.00421 | 66 ft | 8 kts | 240° |
| 2026-05-01 15:10 | 14.50220 | 121.00364 | 67 ft | 0 kts | 240° |
| 2026-05-01 15:11 | 14.50218 | 121.00362 | 67 ft | 2 kts | 240° |
| 2026-05-01 15:12 | 14.50196 | 121.00334 | 66 ft | 10 kts | 215° |
| 2026-05-01 15:12 | 14.50050 | 121.00208 | 67 ft | 15 kts | 240° |
| 2026-05-01 15:12 | 14.50001 | 121.00121 | 65 ft | 13 kts | 238° |
| 2026-05-01 15:13 | 14.49941 | 121.00013 | 66 ft | 0 kts | 240° |
| 2026-05-01 15:14 | 14.49923 | 120.99981 | 65 ft | 8 kts | 235° |
| 2026-05-01 15:15 | 14.49877 | 120.99966 | 62 ft | 0 kts | 154° |
| 2026-05-01 15:16 | 14.49820 | 120.99997 | 65 ft | 11 kts | 147° |
| 2026-05-01 15:16 | 14.49862 | 121.00145 | 61 ft | 13 kts | 60° |
| 2026-05-01 15:17 | 14.49868 | 121.00156 | 64 ft | 0 kts | 60° |
| 2026-05-01 15:19 | 14.49919 | 121.00247 | 59 ft | 50 kts | 60° |
| 2026-05-01 15:19 | 14.50215 | 121.00785 | 65 ft | 118 kts | 60° |
| 2026-05-01 15:20 | 14.51287 | 121.02728 | 837 ft | 166 kts | 63° |
| 2026-05-01 15:20 | 14.51847 | 121.03765 | 1660 ft | 165 kts | 62° |
| 2026-05-01 15:20 | 14.52432 | 121.04856 | 2097 ft | 184 kts | 62° |
| 2026-05-01 15:21 | 14.53092 | 121.06092 | 2444 ft | 209 kts | 63° |
| 2026-05-01 15:21 | 14.53834 | 121.07485 | 2892 ft | 234 kts | 63° |
| 2026-05-01 15:21 | 14.54653 | 121.09015 | 3511 ft | 250 kts | 62° |
| 2026-05-01 15:21 | 14.55358 | 121.10673 | 4336 ft | 256 kts | 75° |
| 2026-05-01 15:22 | 14.56286 | 121.14300 | 6022 ft | 267 kts | 77° |
| 2026-05-01 15:22 | 14.56741 | 121.16173 | 6838 ft | 271 kts | 77° |
| 2026-05-01 15:22 | 14.57195 | 121.18082 | 7683 ft | 275 kts | 79° |
| 2026-05-01 15:23 | 14.57202 | 121.20052 | 8466 ft | 280 kts | 103° |
| 2026-05-01 15:23 | 14.56453 | 121.21922 | 9318 ft | 284 kts | 116° |
| 2026-05-01 15:23 | 14.55521 | 121.23737 | 10122 ft | 289 kts | 117° |
| 2026-05-01 15:23 | 14.54488 | 121.25604 | 10431 ft | 312 kts | 123° |
| 2026-05-01 15:24 | 14.53130 | 121.27449 | 10819 ft | 328 kts | 127° |
| 2026-05-01 15:24 | 14.51706 | 121.29287 | 11469 ft | 334 kts | 127° |
| 2026-05-01 15:24 | 14.50166 | 121.31107 | 12190 ft | 339 kts | 136° |
| 2026-05-01 15:24 | 14.48301 | 121.32634 | 12927 ft | 343 kts | 140° |
| 2026-05-01 15:25 | 14.46404 | 121.34137 | 13657 ft | 345 kts | 140° |
| 2026-05-01 15:25 | 14.44490 | 121.35646 | 14261 ft | 348 kts | 140° |
| 2026-05-01 15:25 | 14.42553 | 121.37171 | 14838 ft | 353 kts | 141° |
| 2026-05-01 15:25 | 14.40588 | 121.38722 | 15420 ft | 356 kts | 141° |
| 2026-05-01 15:26 | 14.38608 | 121.40286 | 16014 ft | 360 kts | 140° |
| 2026-05-01 15:26 | 14.36613 | 121.41866 | 16600 ft | 363 kts | 141° |
| 2026-05-01 15:26 | 14.34614 | 121.43450 | 17168 ft | 367 kts | 141° |
| 2026-05-01 15:26 | 14.32565 | 121.45073 | 17745 ft | 370 kts | 141° |
| 2026-05-01 15:27 | 14.30535 | 121.46677 | 18294 ft | 373 kts | 141° |
| 2026-05-01 15:27 | 14.28461 | 121.48315 | 18767 ft | 376 kts | 141° |
| 2026-05-01 15:27 | 14.26378 | 121.49961 | 19275 ft | 378 kts | 141° |
| 2026-05-01 15:28 | 14.22162 | 121.53296 | 20281 ft | 385 kts | 141° |
| 2026-05-01 15:28 | 14.20028 | 121.54981 | 20771 ft | 388 kts | 142° |
| 2026-05-01 15:28 | 14.17874 | 121.56681 | 21269 ft | 391 kts | 142° |
| 2026-05-01 15:29 | 14.13535 | 121.60104 | 22234 ft | 398 kts | 142° |
| 2026-05-01 15:29 | 14.11329 | 121.61847 | 22705 ft | 402 kts | 142° |
| 2026-05-01 15:29 | 14.06844 | 121.65388 | 23612 ft | 410 kts | 142° |
| 2026-05-01 15:30 | 14.02274 | 121.68985 | 24365 ft | 416 kts | 143° |
| 2026-05-01 15:31 | 13.92941 | 121.76329 | 25866 ft | 427 kts | 143° |
| 2026-05-01 15:31 | 13.88186 | 121.80068 | 26583 ft | 432 kts | 143° |
| 2026-05-01 15:32 | 13.83360 | 121.83826 | 27269 ft | 437 kts | 144° |
| 2026-05-01 15:32 | 13.80103 | 121.86285 | 27725 ft | 440 kts | 145° |
| 2026-05-01 15:33 | 13.72811 | 121.91554 | 28668 ft | 446 kts | 144° |
| 2026-05-01 15:34 | 13.65327 | 121.97377 | 29615 ft | 453 kts | 144° |